createdAt,value
2018-10-04T00:00:25.834Z,22.42
2018-10-04T00:02:53.003Z,22.98
2018-10-04T00:05:20.214Z,20.65
2018-10-04T00:07:47.405Z,34.20
2018-10-04T00:10:14.684Z,20.12
2018-10-04T00:12:41.872Z,23.20
2018-10-04T00:15:09.077Z,19.55
2018-10-04T00:17:36.262Z,20.88
2018-10-04T00:20:03.455Z,21.65
2018-10-04T00:22:30.647Z,18.10
2018-10-04T00:24:57.870Z,21.77
2018-10-04T00:27:25.048Z,18.67
2018-10-04T00:29:52.222Z,14.90
2018-10-04T00:32:19.407Z,15.68
2018-10-04T00:34:46.606Z,17.17
2018-10-04T00:37:13.774Z,14.33
2018-10-04T00:39:40.987Z,19.52
2018-10-04T00:42:08.181Z,17.25
2018-10-04T00:44:35.370Z,27.37
2018-10-04T00:47:02.648Z,19.20
2018-10-04T00:49:29.842Z,20.60
2018-10-04T00:51:57.052Z,23.05
2018-10-04T00:54:24.252Z,19.20
2018-10-04T00:56:51.454Z,23.10
2018-10-04T00:59:18.635Z,22.17
2018-10-04T01:01:45.833Z,23.75
2018-10-04T01:04:13.011Z,17.65
2018-10-04T01:06:40.259Z,23.22
2018-10-04T01:09:07.464Z,21.73
2018-10-04T01:11:34.651Z,20.48
2018-10-04T01:14:01.834Z,19.25
2018-10-04T01:16:29.026Z,20.30
2018-10-04T01:18:58.332Z,14.43
2018-10-04T01:21:25.670Z,17.52
2018-10-04T01:23:53.523Z,18.23
2018-10-04T01:26:20.900Z,20.62
2018-10-04T01:28:48.637Z,16.32
2018-10-04T01:31:15.832Z,25.88
2018-10-04T01:33:43.222Z,17.90
2018-10-04T01:36:10.595Z,30.08
2018-10-04T01:38:37.750Z,15.65
2018-10-04T01:41:04.893Z,18.92
2018-10-04T01:43:32.255Z,21.50
2018-10-04T01:45:59.424Z,22.13
2018-10-04T01:48:26.587Z,15.28
2018-10-04T01:50:53.754Z,16.57
2018-10-04T01:53:21.155Z,21.70
2018-10-04T01:55:48.307Z,22.73
2018-10-04T01:58:15.454Z,17.27
2018-10-04T02:00:42.679Z,22.70
2018-10-04T02:03:09.926Z,24.95
2018-10-04T02:05:37.100Z,23.07
2018-10-04T02:08:04.299Z,17.55
2018-10-04T02:10:31.685Z,23.07
2018-10-04T02:12:58.868Z,26.02
2018-10-04T02:15:26.077Z,29.80
2018-10-04T02:17:53.535Z,26.42
2018-10-04T02:20:20.740Z,26.65
2018-10-04T02:22:48.054Z,25.82
2018-10-04T02:25:15.288Z,23.15
2018-10-04T02:27:42.511Z,15.72
2018-10-04T02:30:09.711Z,16.82
2018-10-04T02:32:36.886Z,15.83
2018-10-04T02:35:04.063Z,18.27
2018-10-04T02:37:31.264Z,26.37
2018-10-04T02:39:58.456Z,18.90
2018-10-04T02:42:25.754Z,18.32
2018-10-04T02:44:52.875Z,25.05
2018-10-04T02:47:20.061Z,24.90
2018-10-04T02:49:47.254Z,19.92
2018-10-04T02:52:14.463Z,21.82
2018-10-04T02:54:47.055Z,23.47
2018-10-04T02:57:14.246Z,25.05
2018-10-04T02:59:41.443Z,30.72
2018-10-04T03:02:08.628Z,21.37
2018-10-04T03:04:35.817Z,28.45
2018-10-04T03:07:02.983Z,26.05
2018-10-04T03:09:30.151Z,24.57
2018-10-04T03:11:57.333Z,23.95
2018-10-04T03:14:24.525Z,27.93
2018-10-04T03:16:51.718Z,20.97
2018-10-04T03:19:18.907Z,22.40
2018-10-04T03:21:46.091Z,31.37
2018-10-04T03:24:13.290Z,24.43
2018-10-04T03:26:40.501Z,22.85
2018-10-04T03:29:07.679Z,27.60
2018-10-04T03:31:34.896Z,24.40
2018-10-04T03:34:02.210Z,21.60
2018-10-04T03:36:29.315Z,21.95
2018-10-04T03:38:56.509Z,20.75
2018-10-04T03:41:23.699Z,18.55
2018-10-04T03:43:50.912Z,21.82
2018-10-04T03:46:18.090Z,18.92
2018-10-04T03:48:45.299Z,27.00
2018-10-04T03:51:12.504Z,21.17
2018-10-04T03:53:39.705Z,22.37
2018-10-04T03:56:06.924Z,16.27
2018-10-04T03:58:34.114Z,23.32
2018-10-04T04:01:01.342Z,31.65
2018-10-04T04:03:28.543Z,22.58
2018-10-04T04:05:55.864Z,22.37
2018-10-04T04:08:23.053Z,21.60
2018-10-04T04:10:50.243Z,23.60
2018-10-04T04:13:17.447Z,20.12
2018-10-04T04:15:44.637Z,22.07
2018-10-04T04:18:11.838Z,19.65
2018-10-04T04:20:39.012Z,22.00
2018-10-04T04:23:06.225Z,25.30
2018-10-04T04:25:33.900Z,27.48
2018-10-04T04:28:01.084Z,24.55
2018-10-04T04:30:28.295Z,19.48
2018-10-04T04:32:55.487Z,19.50
2018-10-04T04:35:22.672Z,17.62
2018-10-04T04:37:49.859Z,17.75
2018-10-04T04:40:17.063Z,19.87
2018-10-04T04:42:44.278Z,18.98
2018-10-04T04:45:11.470Z,23.77
2018-10-04T04:47:38.668Z,17.10
2018-10-04T04:50:05.876Z,17.55
2018-10-04T04:52:33.106Z,22.58
2018-10-04T04:55:16.221Z,20.00
2018-10-04T04:57:43.444Z,23.60
2018-10-04T05:00:10.722Z,17.12
2018-10-04T05:02:37.906Z,21.85
2018-10-04T05:05:05.121Z,21.42
2018-10-04T05:07:32.323Z,26.73
2018-10-04T05:09:59.629Z,22.50
2018-10-04T05:12:26.827Z,22.15
2018-10-04T05:14:53.994Z,23.10
2018-10-04T05:17:21.196Z,18.87
2018-10-04T05:19:48.421Z,22.05
2018-10-04T05:22:15.620Z,19.17
2018-10-04T05:24:42.811Z,28.35
2018-10-04T05:27:10.007Z,27.45
2018-10-04T05:29:37.183Z,21.70
2018-10-04T05:32:04.425Z,23.00
2018-10-04T05:34:31.627Z,20.92
2018-10-04T05:36:58.947Z,21.30
2018-10-04T05:39:26.091Z,20.65
2018-10-04T05:41:53.297Z,21.12
2018-10-04T05:44:20.479Z,18.52
2018-10-04T05:46:47.679Z,19.37
2018-10-04T05:49:14.871Z,18.87
2018-10-04T05:51:42.099Z,20.20
2018-10-04T05:54:09.295Z,20.15
2018-10-04T05:56:36.488Z,22.67
2018-10-04T05:59:03.815Z,24.40
2018-10-04T06:01:30.958Z,18.98
2018-10-04T06:03:58.145Z,22.52
2018-10-04T06:06:25.373Z,21.45
2018-10-04T06:08:52.615Z,19.12
2018-10-04T06:11:19.794Z,17.25
2018-10-04T06:13:46.997Z,19.52
2018-10-04T06:16:14.179Z,17.50
2018-10-04T06:18:41.462Z,19.50
2018-10-04T06:21:08.649Z,20.88
2018-10-04T06:23:35.826Z,18.45
2018-10-04T06:26:03.015Z,17.55
2018-10-04T06:28:30.284Z,23.55
2018-10-04T06:30:57.435Z,19.05
2018-10-04T06:33:24.614Z,22.80
2018-10-04T06:35:51.811Z,27.82
2018-10-04T06:38:18.991Z,24.80
2018-10-04T06:40:46.184Z,20.12
2018-10-04T06:43:13.384Z,22.50
2018-10-04T06:45:40.559Z,19.82
2018-10-04T06:48:07.748Z,22.17
2018-10-04T06:50:34.947Z,23.27
2018-10-04T06:53:02.136Z,25.10
2018-10-04T06:55:29.321Z,22.60
2018-10-04T06:57:56.542Z,21.35
2018-10-04T07:00:23.748Z,19.37
2018-10-04T07:02:50.940Z,32.05
2018-10-04T07:05:20.993Z,25.85
2018-10-04T07:07:48.222Z,23.40
2018-10-04T07:10:15.524Z,24.20
2018-10-04T07:12:42.602Z,22.00
2018-10-04T07:15:09.797Z,20.10
2018-10-04T07:17:36.989Z,19.32
2018-10-04T07:20:04.175Z,22.00
2018-10-04T07:22:31.398Z,21.37
2018-10-04T07:24:58.612Z,19.90
2018-10-04T07:27:25.791Z,18.32
2018-10-04T07:29:52.980Z,24.02
2018-10-04T07:32:20.329Z,17.62
2018-10-04T07:34:47.542Z,16.12
2018-10-04T07:37:14.753Z,17.98
2018-10-04T07:39:41.943Z,21.52
2018-10-04T07:42:09.180Z,24.85
2018-10-04T07:44:36.330Z,20.25
2018-10-04T07:47:03.550Z,25.25
2018-10-04T07:49:30.771Z,23.62
2018-10-04T07:51:57.965Z,25.92
2018-10-04T07:54:25.163Z,26.95
2018-10-04T07:56:52.350Z,21.20
2018-10-04T07:59:19.625Z,19.57
2018-10-04T08:01:46.871Z,20.30
2018-10-04T08:04:14.055Z,19.25
2018-10-04T08:06:41.599Z,17.32
2018-10-04T08:09:09.095Z,17.48
2018-10-04T08:11:36.439Z,24.30
2018-10-04T08:14:03.750Z,20.08
2018-10-04T08:16:30.983Z,18.10
2018-10-04T08:18:58.139Z,22.13
2018-10-04T08:21:25.346Z,20.95
2018-10-04T08:23:52.541Z,30.27
2018-10-04T08:26:19.805Z,23.98
2018-10-04T08:28:47.057Z,18.02
2018-10-04T08:31:14.253Z,19.50
2018-10-04T08:33:41.457Z,15.60
2018-10-04T08:36:08.654Z,19.17
2018-10-04T08:38:35.963Z,20.60
2018-10-04T08:41:03.216Z,21.40
2018-10-04T08:43:30.432Z,23.22
2018-10-04T08:45:57.648Z,21.30
2018-10-04T08:48:24.896Z,19.12
2018-10-04T08:50:53.098Z,19.07
2018-10-04T08:53:20.295Z,22.27
2018-10-04T08:55:47.512Z,15.40
2018-10-04T08:58:14.731Z,17.65
2018-10-04T09:00:42.197Z,21.20
2018-10-04T09:03:09.399Z,19.60
2018-10-04T09:05:36.596Z,16.65
2018-10-04T09:08:03.779Z,15.00
2018-10-04T09:10:31.259Z,21.07
2018-10-04T09:12:58.520Z,16.97
2018-10-04T09:15:25.744Z,11.08
2018-10-04T09:17:52.931Z,23.47
2018-10-04T09:20:20.119Z,18.23
2018-10-04T09:22:47.335Z,22.75
2018-10-04T09:25:14.941Z,19.25
2018-10-04T09:27:42.144Z,17.25
2018-10-04T09:30:14.731Z,16.32
2018-10-04T09:32:42.344Z,23.50
2018-10-04T09:35:09.628Z,17.27
2018-10-04T09:37:36.823Z,16.20
2018-10-04T09:40:04.016Z,22.15
2018-10-04T09:42:35.272Z,22.80
2018-10-04T09:45:02.481Z,16.30
2018-10-04T09:47:30.247Z,18.75
2018-10-04T09:49:58.419Z,20.12
2018-10-04T09:52:25.874Z,19.85
2018-10-04T09:54:58.601Z,16.55
2018-10-04T09:57:31.333Z,18.35
2018-10-04T09:59:58.632Z,21.05
2018-10-04T10:02:30.139Z,20.32
2018-10-04T10:04:57.331Z,24.15
2018-10-04T10:07:24.525Z,18.35
2018-10-04T10:09:51.718Z,23.42
2018-10-04T10:12:18.904Z,17.27
2018-10-04T10:14:46.136Z,19.85
2018-10-04T10:17:13.346Z,17.12
2018-10-04T10:19:40.566Z,22.50
2018-10-04T10:22:07.751Z,21.87
2018-10-04T10:24:34.943Z,14.98
2018-10-04T10:27:02.144Z,23.35
2018-10-04T10:29:29.344Z,15.30
2018-10-04T10:31:56.536Z,19.52
2018-10-04T10:34:23.745Z,23.67
2018-10-04T10:36:50.931Z,16.80
2018-10-04T10:39:18.155Z,33.75
2018-10-04T10:41:45.351Z,21.40
2018-10-04T10:44:12.553Z,20.80
2018-10-04T10:46:39.744Z,12.88
2018-10-04T10:49:06.971Z,17.85
2018-10-04T10:51:34.153Z,17.70
2018-10-04T10:54:01.466Z,14.65
2018-10-04T10:56:28.712Z,23.83
2018-10-04T10:58:56.012Z,14.30
2018-10-04T11:01:23.224Z,19.75
2018-10-04T11:03:50.454Z,15.03
2018-10-04T11:06:17.722Z,20.90
2018-10-04T11:08:44.895Z,23.10
2018-10-04T11:11:12.093Z,20.75
2018-10-04T11:13:39.375Z,23.62
2018-10-04T11:16:06.560Z,12.45
2018-10-04T11:18:33.740Z,15.78
2018-10-04T11:21:00.926Z,18.82
2018-10-04T11:23:28.113Z,16.05
2018-10-04T11:25:55.319Z,16.87
2018-10-04T11:28:22.510Z,19.55
2018-10-04T11:30:49.776Z,17.98
2018-10-04T11:33:17.036Z,15.98
2018-10-04T11:35:44.166Z,11.00
2018-10-04T11:38:11.385Z,14.70
2018-10-04T11:40:38.586Z,14.53
2018-10-04T11:43:06.578Z,11.12
2018-10-04T11:45:36.606Z,12.55
2018-10-04T11:48:03.877Z,14.58
2018-10-04T11:50:31.075Z,10.58
2018-10-04T11:52:58.290Z,8.90
2018-10-04T11:55:25.532Z,17.65
2018-10-04T11:57:52.762Z,32.42
2018-10-04T12:00:21.473Z,29.77
2018-10-04T12:02:51.025Z,13.08
2018-10-04T12:05:19.058Z,49.95
2018-10-04T12:07:46.750Z,57.35
2018-10-04T12:10:14.838Z,13.40
2018-10-04T12:12:42.034Z,19.57
2018-10-04T12:15:09.219Z,16.67
2018-10-04T12:17:36.536Z,18.77
2018-10-04T12:20:03.788Z,28.40
2018-10-04T12:22:30.984Z,17.00
2018-10-04T12:24:58.343Z,10.88
2018-10-04T12:27:25.542Z,13.93
2018-10-04T12:29:52.714Z,16.02
2018-10-04T12:32:20.001Z,13.83
2018-10-04T12:34:47.370Z,15.60
2018-10-04T12:37:14.580Z,11.10
2018-10-04T12:39:41.788Z,26.90
2018-10-04T12:42:08.990Z,16.83
2018-10-04T12:44:36.177Z,33.43
2018-10-04T12:47:03.375Z,15.83
2018-10-04T12:49:30.574Z,14.70
2018-10-04T12:51:57.765Z,16.63
2018-10-04T12:54:25.158Z,16.50
2018-10-04T12:56:52.295Z,9.27
2018-10-04T12:59:19.480Z,15.37
2018-10-04T13:01:46.674Z,10.80
2018-10-04T13:04:13.865Z,15.10
2018-10-04T13:06:41.109Z,10.97
2018-10-04T13:09:08.967Z,13.77
2018-10-04T13:11:36.235Z,14.00
2018-10-04T13:14:03.440Z,11.00
2018-10-04T13:16:30.664Z,13.97
2018-10-04T13:18:58.010Z,13.50
2018-10-04T13:21:25.376Z,12.90
2018-10-04T13:23:52.553Z,18.10
2018-10-04T13:26:19.758Z,7.60
2018-10-04T13:28:46.982Z,24.53
2018-10-04T13:31:14.190Z,8.90
2018-10-04T13:33:41.521Z,14.53
2018-10-04T13:36:08.714Z,11.03
2018-10-04T13:38:35.903Z,17.50
2018-10-04T13:41:03.108Z,9.03
2018-10-04T13:43:30.271Z,7.77
2018-10-04T13:45:57.500Z,15.00
2018-10-04T13:48:24.762Z,12.80
2018-10-04T13:50:51.959Z,12.83
2018-10-04T13:53:19.169Z,6.60
2018-10-04T13:55:46.343Z,8.10
2018-10-04T13:58:13.579Z,6.87
2018-10-04T14:00:40.751Z,9.37
2018-10-04T14:03:08.070Z,9.90
2018-10-04T14:05:35.363Z,6.47
2018-10-04T14:08:02.541Z,8.33
2018-10-04T14:10:29.733Z,13.80
2018-10-04T14:12:56.937Z,6.83
2018-10-04T14:15:24.118Z,9.40
2018-10-04T14:17:51.562Z,5.77
2018-10-04T14:20:18.745Z,6.60
2018-10-04T14:22:45.937Z,6.97
2018-10-04T14:25:13.126Z,6.63
2018-10-04T14:27:41.204Z,4.17
2018-10-04T14:30:08.383Z,8.47
2018-10-04T14:32:35.636Z,5.50
2018-10-04T14:35:02.798Z,4.70
2018-10-04T14:37:30.116Z,4.63
2018-10-04T14:39:57.300Z,4.73
2018-10-04T14:42:24.540Z,8.23
2018-10-04T14:44:51.744Z,5.37
2018-10-04T14:47:19.021Z,7.57
2018-10-04T14:49:46.223Z,6.37
2018-10-04T14:52:13.419Z,7.37
2018-10-04T14:54:40.639Z,12.23
2018-10-04T14:57:07.823Z,6.13
2018-10-04T14:59:35.033Z,5.33
2018-10-04T15:02:02.244Z,6.07
2018-10-04T15:04:29.526Z,7.50
2018-10-04T15:06:56.723Z,6.53
2018-10-04T15:09:23.962Z,9.23
2018-10-04T15:11:51.145Z,8.07
2018-10-04T15:14:18.343Z,5.23
2018-10-04T15:16:45.539Z,6.20
2018-10-04T15:19:12.772Z,6.00
2018-10-04T15:21:39.973Z,8.43
2018-10-04T15:24:07.355Z,4.47
2018-10-04T15:26:34.504Z,5.07
2018-10-04T15:29:01.843Z,6.07
2018-10-04T15:31:35.659Z,9.60
2018-10-04T15:34:02.870Z,7.93
2018-10-04T15:36:30.068Z,17.20
2018-10-04T15:38:57.316Z,7.57
2018-10-04T15:41:24.563Z,8.00
2018-10-04T15:43:51.796Z,6.83
2018-10-04T15:46:18.979Z,6.30
2018-10-04T15:48:46.175Z,5.47
2018-10-04T15:51:13.366Z,4.20
2018-10-04T15:53:40.556Z,7.37
2018-10-04T15:56:07.739Z,6.70
2018-10-04T15:58:34.947Z,7.87
2018-10-04T16:01:02.139Z,7.50
2018-10-04T16:03:29.351Z,6.97
2018-10-04T16:05:56.531Z,6.07
2018-10-04T16:08:23.762Z,13.93
2018-10-04T16:10:50.963Z,8.30
2018-10-04T16:13:18.152Z,4.13
2018-10-04T16:15:48.376Z,8.40
2018-10-04T16:18:15.594Z,7.10
2018-10-04T16:20:42.779Z,9.90
2018-10-04T16:23:09.964Z,6.53
2018-10-04T16:25:37.152Z,10.50
2018-10-04T16:28:04.357Z,7.60
2018-10-04T16:30:31.586Z,7.30
2018-10-04T16:32:58.779Z,8.67
2018-10-04T16:35:25.981Z,6.37
2018-10-04T16:37:53.174Z,7.70
2018-10-04T16:40:20.352Z,9.05
2018-10-04T16:42:47.535Z,11.93
2018-10-04T16:45:14.783Z,14.25
2018-10-04T16:47:42.054Z,15.23
2018-10-04T16:50:09.969Z,13.80
2018-10-04T16:52:37.234Z,14.07
2018-10-04T16:55:04.581Z,17.02
2018-10-04T16:57:31.779Z,12.80
2018-10-04T16:59:59.020Z,15.45
2018-10-04T17:02:26.196Z,11.53
2018-10-04T17:04:53.638Z,15.55
2018-10-04T17:07:20.815Z,16.67
2018-10-04T17:12:21.585Z,12.10
2018-10-04T17:14:48.908Z,14.85
2018-10-04T17:17:16.147Z,16.20
2018-10-04T17:19:43.443Z,12.88
2018-10-04T17:22:10.721Z,18.23
2018-10-04T17:24:37.908Z,12.98
2018-10-04T17:27:05.365Z,14.55
2018-10-04T17:29:32.608Z,9.00
2018-10-04T17:31:59.742Z,11.15
2018-10-04T17:34:26.947Z,14.23
2018-10-04T17:36:54.139Z,39.23
2018-10-04T17:39:21.791Z,40.17
2018-10-04T17:41:49.017Z,32.73
2018-10-04T17:44:16.204Z,26.37
2018-10-04T17:46:43.398Z,20.08
2018-10-04T17:49:10.586Z,21.85
2018-10-04T17:51:37.893Z,28.55
2018-10-04T17:54:05.115Z,18.67
2018-10-04T17:56:32.285Z,13.08
2018-10-04T17:58:59.461Z,7.20
2018-10-04T18:01:26.663Z,8.00
2018-10-04T18:03:53.991Z,14.68
2018-10-04T18:06:21.350Z,12.63
2018-10-04T18:08:48.785Z,13.72
2018-10-04T18:11:16.043Z,15.23
2018-10-04T18:13:43.403Z,23.92
2018-10-04T18:16:10.738Z,10.95
2018-10-04T18:18:37.914Z,15.50
2018-10-04T18:21:05.110Z,14.18
2018-10-04T18:23:32.315Z,14.40
2018-10-04T18:25:59.521Z,11.43
2018-10-04T18:28:26.748Z,10.03
2018-10-04T18:30:54.056Z,15.63
2018-10-04T18:33:21.256Z,8.53
2018-10-04T18:35:48.426Z,13.20
2018-10-04T18:38:15.822Z,10.70
2018-10-04T18:40:43.031Z,17.45
2018-10-04T18:43:10.214Z,22.10
2018-10-04T18:45:37.412Z,10.13
2018-10-04T18:48:04.619Z,10.35
2018-10-04T18:50:31.830Z,12.65
2018-10-04T18:52:59.026Z,13.68
2018-10-04T18:55:26.287Z,16.48
2018-10-04T18:57:53.470Z,13.00
2018-10-04T19:00:20.671Z,16.93
2018-10-04T19:02:47.870Z,15.95
2018-10-04T19:05:15.247Z,15.93
2018-10-04T19:07:42.496Z,17.48
2018-10-04T19:10:09.683Z,12.68
2018-10-04T19:12:36.935Z,17.92
2018-10-04T19:15:04.113Z,11.48
2018-10-04T19:17:31.315Z,14.28
2018-10-04T19:19:58.511Z,14.87
2018-10-04T19:22:25.723Z,14.65
2018-10-04T19:24:52.915Z,13.62
2018-10-04T19:27:20.106Z,13.93
2018-10-04T19:29:47.347Z,11.20
2018-10-04T19:32:14.533Z,13.78
2018-10-04T19:34:41.858Z,13.25
2018-10-04T19:37:09.064Z,12.40
2018-10-04T19:39:36.251Z,15.38
2018-10-04T19:42:03.783Z,9.33
2018-10-04T19:44:31.075Z,13.38
2018-10-04T19:46:58.273Z,15.90
2018-10-04T19:49:25.486Z,11.05
2018-10-04T19:51:52.699Z,16.25
2018-10-04T19:54:19.883Z,17.15
2018-10-04T19:56:47.230Z,12.82
2018-10-04T19:59:14.441Z,15.90
2018-10-04T20:01:41.686Z,15.32
2018-10-04T20:04:08.988Z,13.05
2018-10-04T20:06:36.181Z,12.70
2018-10-04T20:09:03.605Z,16.00
2018-10-04T20:11:30.803Z,20.55
2018-10-04T20:13:58.020Z,14.25
2018-10-04T20:16:25.215Z,17.75
2018-10-04T20:18:52.404Z,12.47
2018-10-04T20:21:19.707Z,16.80
2018-10-04T20:23:46.891Z,12.85
2018-10-04T20:26:14.107Z,19.85
2018-10-04T20:28:41.292Z,21.07
2018-10-04T20:31:08.486Z,14.15
2018-10-04T20:33:35.688Z,15.40
2018-10-04T20:36:02.958Z,13.38
2018-10-04T20:38:30.148Z,11.78
2018-10-04T20:40:57.356Z,15.00
2018-10-04T20:43:24.544Z,14.50
2018-10-04T20:45:51.744Z,15.20
2018-10-04T20:48:18.937Z,13.45
2018-10-04T20:50:46.131Z,15.25
2018-10-04T20:53:13.322Z,19.07
2018-10-04T20:55:40.566Z,15.08
2018-10-04T20:58:07.742Z,11.08
2018-10-04T21:00:34.936Z,11.48
2018-10-04T21:03:02.223Z,11.95
2018-10-04T21:05:29.390Z,14.40
2018-10-04T21:07:56.591Z,11.80
2018-10-04T21:10:23.778Z,11.05
2018-10-04T21:12:50.967Z,26.30
2018-10-04T21:15:18.182Z,13.10
2018-10-04T21:17:45.530Z,16.07
2018-10-04T21:20:12.715Z,17.98
2018-10-04T21:22:39.972Z,12.55
2018-10-04T21:25:07.098Z,19.02
2018-10-04T21:27:34.306Z,22.50
2018-10-04T21:30:01.585Z,14.03
2018-10-04T21:32:28.782Z,10.18
2018-10-04T21:34:55.956Z,9.50
2018-10-04T21:37:23.134Z,11.08
2018-10-04T21:39:50.340Z,10.78
2018-10-04T21:42:17.528Z,14.50
2018-10-04T21:44:44.792Z,12.58
2018-10-04T21:47:11.993Z,11.90
2018-10-04T21:49:39.174Z,15.30
2018-10-04T21:52:06.362Z,13.10
2018-10-04T21:54:33.558Z,11.97
2018-10-04T21:57:00.748Z,11.75
2018-10-04T21:59:27.961Z,12.53
2018-10-04T22:01:55.188Z,11.95
2018-10-04T22:04:22.421Z,13.10
2018-10-04T22:06:49.570Z,10.35
2018-10-04T22:09:16.780Z,17.90
2018-10-04T22:11:44.054Z,12.80
2018-10-04T22:14:11.307Z,13.38
2018-10-04T22:16:38.592Z,11.75
2018-10-04T22:19:05.856Z,11.83
2018-10-04T22:21:33.167Z,11.22
2018-10-04T22:24:00.438Z,11.53
2018-10-04T22:26:27.718Z,11.53
2018-10-04T22:28:54.966Z,10.78
2018-10-04T22:31:22.432Z,9.70
2018-10-04T22:33:49.733Z,13.48
2018-10-04T22:36:17.088Z,18.77
2018-10-04T22:38:44.339Z,10.50
2018-10-04T22:41:11.691Z,13.68
2018-10-04T22:43:39.151Z,11.12
2018-10-04T22:46:06.609Z,12.50
2018-10-04T22:48:33.883Z,11.10
2018-10-04T22:51:01.166Z,13.68
2018-10-04T22:53:28.414Z,13.05
2018-10-04T22:55:55.672Z,11.38
2018-10-04T22:58:22.951Z,14.25
2018-10-04T23:00:50.209Z,12.00
2018-10-04T23:03:17.471Z,15.98
2018-10-04T23:05:44.833Z,11.00
2018-10-04T23:08:12.081Z,10.90
2018-10-04T23:10:39.336Z,16.82
2018-10-04T23:13:06.607Z,12.25
2018-10-04T23:15:33.945Z,12.35
2018-10-04T23:18:01.194Z,13.68
2018-10-04T23:20:28.551Z,16.80
2018-10-04T23:22:55.818Z,12.28
2018-10-04T23:25:23.078Z,16.02
2018-10-04T23:27:50.354Z,13.00
2018-10-04T23:30:17.662Z,13.15
2018-10-04T23:32:44.915Z,14.60
2018-10-04T23:35:12.180Z,14.03
2018-10-04T23:37:39.472Z,11.33
2018-10-04T23:40:06.738Z,12.43
2018-10-04T23:42:34.024Z,14.20
2018-10-04T23:45:01.382Z,12.45
2018-10-04T23:47:28.658Z,11.60
2018-10-04T23:49:55.964Z,13.00
2018-10-04T23:52:23.239Z,14.28
2018-10-04T23:54:50.491Z,14.03
2018-10-04T23:57:17.932Z,14.47
2018-10-04T23:59:45.215Z,15.10
